Time;durP1;ratioP1;P1;durP2;ratioP2;P2;SDS_P1;SDS_P2;PMS_P1;PMS_P2;Temp;Humidity;BMP_temperature;BMP_pressure;BME280_temperature;BME280_humidity;BME280_pressure;Samples;Min_cycle;Max_cycle;Signal;HPM_P1;HPM_P2
2023/01/25 00:00:26;;;;;;;44.05;27.65;;;;;;;;;;4988400;28;20831;-80
2023/01/25 00:02:52;;;;;;;46.70;29.30;;;;;;;;;;5005233;28;20420;-80
2023/01/25 00:05:18;;;;;;;44.47;27.70;;;;;;;;;;4990710;28;20428;-80
2023/01/25 00:07:44;;;;;;;42.25;27.35;;;;;;;;;;4993228;28;20511;-80
2023/01/25 00:10:10;;;;;;;42.53;27.52;;;;;;;;;;4992562;28;20416;-80
2023/01/25 00:12:36;;;;;;;48.70;29.92;;;;;;;;;;4997030;28;20411;-80
2023/01/25 00:15:03;;;;;;;45.50;28.92;;;;;;;;;;4975357;28;20426;-80
2023/01/25 00:17:29;;;;;;;49.22;30.70;;;;;;;;;;4979444;28;20460;-80
2023/01/25 00:19:55;;;;;;;47.10;29.70;;;;;;;;;;5012706;28;20468;-80
2023/01/25 00:22:21;;;;;;;49.38;30.38;;;;;;;;;;4995376;28;20493;-80
2023/01/25 00:24:47;;;;;;;52.58;32.15;;;;;;;;;;4996257;28;20788;-80
2023/01/25 00:27:13;;;;;;;53.35;31.30;;;;;;;;;;5013346;28;20432;-80
2023/01/25 00:29:39;;;;;;;53.33;31.77;;;;;;;;;;5012573;28;20424;-80
2023/01/25 00:32:05;;;;;;;56.23;32.63;;;;;;;;;;4996905;28;20421;-80
2023/01/25 00:34:45;;;;;;;55.83;33.38;;;;;;;;;;4997739;28;20507;-80
2023/01/25 00:45:49;;;;;;;56.92;33.47;;;;;;;;;;5468035;23;20476;-81
2023/01/25 00:51:30;;;;;;;55.88;33.53;;;;;;;;;;5147376;27;20473;-77
2023/01/25 00:53:56;;;;;;;54.92;32.70;;;;;;;;;;5126025;27;20418;-77
2023/01/25 00:56:22;;;;;;;57.55;33.00;;;;;;;;;;5143418;27;20416;-77
2023/01/25 00:58:48;;;;;;;58.23;34.10;;;;;;;;;;5114652;27;20409;-77
2023/01/25 01:01:14;;;;;;;57.47;33.95;;;;;;;;;;5109849;27;20430;-77
2023/01/25 01:03:40;;;;;;;56.60;33.43;;;;;;;;;;5129295;27;20874;-77
2023/01/25 01:06:08;;;;;;;55.40;33.80;;;;;;;;;;5143651;27;20458;-77
2023/01/25 01:08:35;;;;;;;57.03;34.60;;;;;;;;;;5148251;27;20466;-77
2023/01/25 01:11:02;;;;;;;58.85;35.08;;;;;;;;;;5128882;27;20514;-77
2023/01/25 01:13:28;;;;;;;57.47;34.60;;;;;;;;;;5145125;27;20422;-77
2023/01/25 01:15:55;;;;;;;63.08;35.80;;;;;;;;;;5160562;27;20419;-77
2023/01/25 01:18:21;;;;;;;62.72;36.65;;;;;;;;;;5152723;27;20413;-77
2023/01/25 01:20:48;;;;;;;63.38;36.53;;;;;;;;;;5131617;27;20494;-77
2023/01/25 01:23:14;;;;;;;69.40;38.83;;;;;;;;;;5112384;27;20433;-77
2023/01/25 01:25:40;;;;;;;67.60;37.95;;;;;;;;;;5158382;27;20412;-77
2023/01/25 01:28:06;;;;;;;69.20;38.22;;;;;;;;;;5140466;27;20923;-77
2023/01/25 01:30:32;;;;;;;65.85;38.25;;;;;;;;;;5151923;27;20501;-77
2023/01/25 01:32:58;;;;;;;68.97;38.90;;;;;;;;;;5130865;27;20821;-76
2023/01/25 01:35:24;;;;;;;69.57;38.85;;;;;;;;;;5140729;27;20404;-76
2023/01/25 01:37:50;;;;;;;69.63;39.13;;;;;;;;;;5142942;27;20764;-77
2023/01/25 01:40:17;;;;;;;68.80;39.23;;;;;;;;;;5114465;27;20402;-77
2023/01/25 01:42:57;;;;;;;67.82;38.83;;;;;;;;;;5128857;27;20452;-78
2023/01/25 01:45:42;;;;;;;69.30;38.75;;;1.30;99.90;;;;;;5157467;27;20424;-77
2023/01/25 01:48:11;;;;;;;69.22;39.10;;;;;;;;;;5140202;27;20401;-78
2023/01/25 01:50:37;;;;;;;70.00;39.00;;;;;;;;;;5135762;27;20750;-78
2023/01/25 01:53:03;;;;;;;69.35;39.83;;;;;;;;;;5147264;27;20904;-76
2023/01/25 01:55:29;;;;;;;68.55;38.65;;;;;;;;;;5112739;27;20437;-77
2023/01/25 01:57:57;;;;;;;70.43;38.60;;;;;;;;;;5128429;27;20486;-77
2023/01/25 02:00:26;;;;;;;72.68;39.72;;;;;;;;;;5127715;27;20466;-77
2023/01/25 02:02:53;;;;;;;73.03;40.10;;;;;;;;;;5124342;27;20469;-77
2023/01/25 02:05:41;;;;;;;71.38;39.42;;;;;;;;;;5107048;27;20961;-77
2023/01/25 02:08:09;;;;;;;70.47;39.13;;;;;;;;;;5106044;28;20455;-77
2023/01/25 02:10:35;;;;;;;69.70;39.33;;;;;;;;;;5113613;28;20417;-77
2023/01/25 02:13:02;;;;;;;78.05;41.10;;;;;;;;;;5094814;28;20423;-77
2023/01/25 02:15:30;;;;;;;70.93;39.72;;;;;;;;;;5129089;27;20489;-77
2023/01/25 02:17:56;;;;;;;74.85;40.67;;;;;;;;;;5131208;27;20446;-77
2023/01/25 02:20:34;;;;;;;70.53;39.05;;;;;;;;;;5123860;27;20427;-77
2023/01/25 02:23:03;;;;;;;72.43;39.67;;;;;;;;;;5096274;28;20821;-76
2023/01/25 02:25:29;;;;;;;76.95;41.17;;;;;;;;;;5097178;27;20674;-76
2023/01/25 02:27:58;;;;;;;75.35;40.85;;;;;;;;;;5128435;27;20410;-76
2023/01/25 02:30:24;;;;;;;76.88;39.72;;;;;;;;;;5095960;28;20450;-76
2023/01/25 02:32:50;;;;;;;76.68;40.85;;;;;;;;;;5099013;27;20413;-77
2023/01/25 02:35:20;;;;;;;74.22;41.03;;;;;;;;;;5127451;27;20415;-77
2023/01/25 02:37:47;;;;;;;73.82;40.55;;;;;;;;;;5113789;27;20437;-77
2023/01/25 02:40:13;;;;;;;74.10;40.72;;;;;;;;;;5097878;27;20419;-77
2023/01/25 02:42:41;;;;;;;76.97;41.63;;;;;;;;;;5118569;27;20421;-77
2023/01/25 02:45:09;;;;;;;67.45;37.65;;;;;;;;;;5105677;27;20425;-77
2023/01/25 02:47:35;;;;;;;68.90;38.70;;;;;;;;;;5108467;28;20472;-77
2023/01/25 02:50:02;;;;;;;70.82;38.35;;;;;;;;;;5108933;27;20450;-77
2023/01/25 02:52:28;;;;;;;68.30;39.25;;;;;;;;;;5112548;27;20519;-77
2023/01/25 02:54:54;;;;;;;69.30;39.72;;;;;;;;;;5130684;27;20419;-77
2023/01/25 02:57:20;;;;;;;72.55;40.67;;;;;;;;;;5127851;27;20423;-77
2023/01/25 02:59:46;;;;;;;73.95;40.60;;;;;;;;;;5093459;28;20806;-76
2023/01/25 03:02:13;;;;;;;71.80;40.30;;;;;;;;;;5112426;28;20411;-76
2023/01/25 03:04:39;;;;;;;74.83;40.33;;;;;;;;;;5116353;27;20411;-76
2023/01/25 03:07:05;;;;;;;71.63;39.88;;;;;;;;;;5112580;28;20404;-76
2023/01/25 03:09:31;;;;;;;73.55;39.33;;;;;;;;;;5079023;28;20419;-76
2023/01/25 03:11:57;;;;;;;70.72;39.05;;;;;;;;;;5095479;28;20396;-76
2023/01/25 03:14:23;;;;;;;71.88;39.53;;;;;;;;;;5097046;27;20442;-76
2023/01/25 03:16:49;;;;;;;70.30;39.03;;;;;;;;;;5107659;27;20422;-77
2023/01/25 03:19:15;;;;;;;70.83;40.17;;;;;;;;;;5132741;27;20893;-76
2023/01/25 03:21:42;;;;;;;72.03;40.22;;;;;;;;;;5095035;27;20937;-77
2023/01/25 03:24:08;;;;;;;70.97;39.73;;;;;;;;;;5125635;27;20437;-76
2023/01/25 03:27:09;;;;;;;69.07;39.30;;;;;;;;;;5098948;27;20746;-76
2023/01/25 03:29:20;;;;;;;69.00;38.83;;;;;;;;;;5126636;27;20408;-76
2023/01/25 03:31:46;;;;;;;66.35;38.38;;;;;;;;;;5112371;27;20487;-76
2023/01/25 03:34:12;;;;;;;69.55;39.75;;;;;;;;;;5095642;27;20417;-76
2023/01/25 03:36:38;;;;;;;72.63;40.55;;;;;;;;;;5130836;27;20395;-77
2023/01/25 03:39:04;;;;;;;69.65;39.22;;;;;;;;;;5112130;28;20478;-76
2023/01/25 03:41:30;;;;;;;67.85;39.38;;;;;;;;;;5111505;27;20469;-76
2023/01/25 03:43:56;;;;;;;64.65;38.05;;;;;;;;;;5111569;27;20571;-77
2023/01/25 03:46:22;;;;;;;70.82;39.70;;;;;;;;;;5113595;27;20417;-76
2023/01/25 03:48:49;;;;;;;70.97;40.45;;;;;;;;;;5106202;27;20418;-77
2023/01/25 03:51:15;;;;;;;72.50;39.83;;;;;;;;;;5097902;27;20540;-76
2023/01/25 03:53:41;;;;;;;68.30;39.75;;;;;;;;;;5112654;27;20413;-76
2023/01/25 03:56:09;;;;;;;69.93;39.22;;;;;;;;;;5094541;28;20491;-76
2023/01/25 03:58:38;;;;;;;67.40;38.55;;;;;;;;;;5094375;28;20392;-79
2023/01/25 04:01:06;;;;;;;69.00;38.95;;;;;;;;;;5113426;27;20417;-80
2023/01/25 04:03:32;;;;;;;69.23;38.93;;;;;;;;;;5121405;27;21125;-79
2023/01/25 04:06:01;;;;;;;67.90;38.53;;;;;;;;;;5111590;28;20739;-79
2023/01/25 04:08:27;;;;;;;70.50;40.35;;;;;;;;;;5111542;28;20453;-79
2023/01/25 04:10:54;;;;;;;66.25;38.00;;;;;;;;;;5111293;28;20499;-80
2023/01/25 04:13:21;;;;;;;67.40;38.08;;;;;;;;;;5112324;27;20447;-79
2023/01/25 04:15:47;;;;;;;65.97;38.13;;;;;;;;;;5130413;27;20410;-79
2023/01/25 04:18:14;;;;;;;66.35;38.35;;;;;;;;;;5129663;27;20913;-79
2023/01/25 04:20:40;;;;;;;70.85;39.92;;;;;;;;;;5107111;27;20502;-78
2023/01/25 04:23:07;;;;;;;69.93;38.67;;;;;;;;;;5118094;27;20434;-80
2023/01/25 04:25:33;;;;;;;69.40;39.60;;;;;;;;;;5114197;27;20418;-80
2023/01/25 04:27:59;;;;;;;68.85;38.95;;;;;;;;;;5126246;27;20751;-79
2023/01/25 04:30:25;;;;;;;69.85;38.28;;;;;;;;;;5092821;28;20507;-79
2023/01/25 04:32:51;;;;;;;73.47;39.90;;;;;;;;;;5095370;28;20416;-80
2023/01/25 04:35:19;;;;;;;68.93;38.53;;;;;;;;;;5097971;27;20770;-79
2023/01/25 04:37:52;;;;;;;71.95;39.22;;;;;;;;;;5095338;28;20416;-79
2023/01/25 04:40:19;;;;;;;68.13;37.75;;;;;;;;;;5112294;27;20423;-79
2023/01/25 04:42:45;;;;;;;67.78;37.55;;;;;;;;;;5095340;28;20467;-80
2023/01/25 04:45:11;;;;;;;73.22;39.30;;;;;;;;;;5114948;27;20402;-79
2023/01/25 04:47:37;;;;;;;89.15;39.58;;;;;;;;;;5114643;28;20892;-80
2023/01/25 04:50:03;;;;;;;74.78;40.88;;;;;;;;;;5097478;28;20419;-80
2023/01/25 04:52:29;;;;;;;70.00;38.25;;;;;;;;;;5119866;28;20429;-79
2023/01/25 04:54:55;;;;;;;70.37;38.97;;;;;;;;;;5091473;28;20416;-80
2023/01/25 04:57:21;;;;;;;71.78;39.72;;;;;;;;;;5094981;28;20396;-80
2023/01/25 04:59:47;;;;;;;72.07;39.17;;;;;;;;;;5117468;28;20477;-80
2023/01/25 05:02:13;;;;;;;72.35;39.20;;;;;;;;;;5082018;28;20418;-80
2023/01/25 05:04:39;;;;;;;73.03;39.20;;;;;;;;;;5079432;28;20420;-80
2023/01/25 05:07:05;;;;;;;69.07;37.53;;;;;;;;;;5107236;28;20439;-80
2023/01/25 05:09:31;;;;;;;69.13;39.25;;;;;;;;;;5105295;28;20423;-80
2023/01/25 05:11:58;;;;;;;72.25;38.80;;;;;;;;;;5099084;28;20447;-80
2023/01/25 05:14:24;;;;;;;73.35;39.95;;;;;;;;;;5124089;28;20448;-80
2023/01/25 05:16:50;;;;;;;71.82;39.33;;;;;;;;;;5120800;28;20867;-81
2023/01/25 05:19:16;;;;;;;72.72;39.15;;;;;;;;;;5109346;28;20423;-80
2023/01/25 05:21:57;;;;;;;71.00;39.78;;;;;;;;;;5129711;28;20393;-79
2023/01/25 05:24:23;;;;;;;74.13;40.03;;;;;;;;;;5141406;28;20415;-79
2023/01/25 05:27:05;;;;;;;71.97;39.38;;;;;;;;;;5138409;28;20414;-79
2023/01/25 05:29:34;;;;;;;70.90;38.85;;;;;;;;;;5125807;28;20426;-79
2023/01/25 05:32:01;;;;;;;71.68;39.83;;;;;;;;;;5131163;28;20739;-79
2023/01/25 05:34:27;;;;;;;71.27;39.47;;;;;;;;;;5132030;27;20414;-79
2023/01/25 05:36:53;;;;;;;71.25;40.10;;;;;;;;;;5127404;27;20394;-79
2023/01/25 05:39:19;;;;;;;69.03;38.13;;;;;;;;;;5109102;27;20422;-79
2023/01/25 05:41:45;;;;;;;66.32;36.90;;;;;;;;;;5135329;27;20401;-79
2023/01/25 05:44:11;;;;;;;65.40;37.20;;;;;;;;;;5121378;27;20767;-79
2023/01/25 05:46:37;;;;;;;68.65;38.53;;;;;;;;;;5097879;28;20411;-78
2023/01/25 05:49:04;;;;;;;67.03;37.88;;;;;;;;;;5097426;27;20442;-77
2023/01/25 05:51:30;;;;;;;69.10;38.85;;;;;;;;;;5133311;27;20747;-79
2023/01/25 05:53:56;;;;;;;64.70;37.17;;;;;;;;;;5106626;28;20529;-79
2023/01/25 05:56:22;;;;;;;62.00;36.50;;;;;;;;;;5118699;27;20467;-80
2023/01/25 05:58:56;;;;;;;61.10;35.13;;;;;;;;;;5132206;27;20410;-80
2023/01/25 06:01:22;;;;;;;57.92;35.03;;;;;;;;;;5100723;27;20422;-80
2023/01/25 06:03:48;;;;;;;58.38;34.65;;;;;;;;;;5132347;27;20949;-80
2023/01/25 06:06:14;;;;;;;60.67;34.28;;;;;;;;;;5109455;27;20456;-80
2023/01/25 06:08:40;;;;;;;59.38;34.70;;;;;;;;;;5105159;27;20418;-81
2023/01/25 06:11:07;;;;;;;60.28;34.55;;;;;;;;;;5132695;27;20444;-81
2023/01/25 06:13:33;;;;;;;57.20;34.47;;;;;;;;;;5129287;27;20412;-81
2023/01/25 06:15:59;;;;;;;59.33;34.13;;;;;;;;;;5116365;27;20416;-81
2023/01/25 06:18:26;;;;;;;56.10;33.20;;;;;;;;;;5089830;28;20489;-80
2023/01/25 06:20:52;;;;;;;54.92;33.25;;;;;;;;;;5112986;28;20420;-81
2023/01/25 06:23:18;;;;;;;74.88;34.85;;;;;;;;;;5113029;27;20414;-81
2023/01/25 06:25:44;;;;;;;58.55;34.20;;;;;;;;;;5128153;27;20418;-81
2023/01/25 06:28:10;;;;;;;58.70;34.90;;;;;;;;;;5125998;27;20959;-82
2023/01/25 06:30:36;;;;;;;55.78;33.17;;;;;;;;;;5133416;27;20411;-82
2023/01/25 06:33:02;;;;;;;55.75;32.90;;;;;;;;;;5125135;27;20924;-82
2023/01/25 06:35:30;;;;;;;56.30;32.92;;;;;;;;;;5106969;28;20408;-81
2023/01/25 06:37:56;;;;;;;56.90;33.78;;;;;;;;;;5102210;27;20501;-81
2023/01/25 06:40:22;;;;;;;56.38;34.38;;;;;;;;;;5097422;27;20424;-81
2023/01/25 06:42:48;;;;;;;116.90;39.58;;;;;;;;;;5103805;27;20823;-81
2023/01/25 06:45:15;;;;;;;60.10;35.20;;;;;;;;;;5105220;27;20412;-82
2023/01/25 06:47:41;;;;;;;63.97;35.20;;;;;;;;;;5102305;27;20471;-83
2023/01/25 06:50:08;;;;;;;56.55;32.75;;;;;;;;;;5109416;27;21005;-82
2023/01/25 06:52:35;;;;;;;58.75;34.95;;;;;;;;;;5113291;27;20445;-82
2023/01/25 06:55:06;;;;;;;61.92;34.97;;;;;;;;;;5098024;27;20423;-82
2023/01/25 06:57:33;;;;;;;58.20;34.43;;;;;;;;;;5114697;27;20454;-83
2023/01/25 06:59:59;;;;;;;58.50;35.38;;;;;;;;;;5100959;27;20505;-81
2023/01/25 07:02:25;;;;;;;58.33;34.08;;;;;;;;;;5117068;27;20415;-82
2023/01/25 07:04:51;;;;;;;59.72;34.10;;;;;;;;;;5094580;28;20415;-82
2023/01/25 07:07:17;;;;;;;57.17;33.30;;;;;;;;;;5097179;27;20516;-86
2023/01/25 07:09:44;;;;;;;61.05;34.85;;;;;;;;;;5111853;27;20423;-82
2023/01/25 07:12:10;;;;;;;58.55;33.90;;;;;;;;;;5112094;27;20837;-83
2023/01/25 07:14:36;;;;;;;59.17;34.60;;;;;;;;;;5104734;28;20500;-84
2023/01/25 07:17:02;;;;;;;56.85;34.35;;;;;;;;;;5114719;27;20413;-84
2023/01/25 07:19:28;;;;;;;56.57;33.50;;;;;;;;;;5128438;27;20504;-84
2023/01/25 07:21:54;;;;;;;60.00;34.72;;;;;;;;;;5112941;27;20743;-83
2023/01/25 07:24:20;;;;;;;60.05;35.17;;;;;;;;;;5131343;27;20478;-84
2023/01/25 07:26:48;;;;;;;62.13;34.95;;;;;;;;;;5090548;27;20423;-83
2023/01/25 07:29:15;;;;;;;63.50;36.65;;;;;;;;;;5111993;27;20395;-83
2023/01/25 07:31:42;;;;;;;59.38;34.67;;;;;;;;;;5100078;28;20422;-84
2023/01/25 07:34:09;;;;;;;62.00;35.75;;;;;;;;;;5102065;27;20502;-83
2023/01/25 07:36:36;;;;;;;58.45;35.42;;;;;;;;;;5129986;27;20432;-80
2023/01/25 07:39:02;;;;;;;66.18;36.35;;;;;;;;;;5103065;28;20490;-81
2023/01/25 07:41:29;;;;;;;57.85;35.05;;;;;;;;;;5095756;27;20511;-83
2023/01/25 07:43:55;;;;;;;57.05;33.53;;;;;;;;;;5107360;27;20449;-80
2023/01/25 07:46:22;;;;;;;60.28;34.85;;;;;;;;;;5092350;27;20430;-79
2023/01/25 07:48:49;;;;;;;62.00;35.42;;;;;;;;;;5095609;28;20427;-80
2023/01/25 07:51:22;;;;;;;62.15;35.80;;;;;;;;;;5095633;28;20487;-81
2023/01/25 07:53:53;;;;;;;72.97;38.70;;;;;;;;;;5111884;27;20507;-81
2023/01/25 07:56:19;;;;;;;62.65;34.88;;;;;;;;;;5120372;27;20417;-80
2023/01/25 07:58:45;;;;;;;62.70;35.22;;;;;;;;;;5103624;28;20408;-80
2023/01/25 08:01:13;;;;;;;63.97;36.20;;;;;;;;;;5120257;27;20501;-81
2023/01/25 08:03:40;;;;;;;67.30;37.30;;;;;;;;;;5107955;27;20423;-80
2023/01/25 08:06:06;;;;;;;88.85;39.65;;;;;;;;;;5110815;27;20448;-82
2023/01/25 08:08:37;;;;;;;66.82;37.08;;;;;;;;;;5117935;27;20696;-81
2023/01/25 08:11:07;;;;;;;70.47;37.58;;;;;;;;;;5116753;27;20419;-83
2023/01/25 08:13:34;;;;;;;66.00;36.25;;;;;;;;;;5099971;28;20448;-81
2023/01/25 08:16:00;;;;;;;67.40;37.05;;;;;;;;;;5120612;27;20412;-81
2023/01/25 08:18:26;;;;;;;65.93;36.13;;;;;;;;;;5096479;27;20412;-81
2023/01/25 08:20:52;;;;;;;73.32;38.22;;;;;;;;;;5097550;27;20772;-82
2023/01/25 08:23:19;;;;;;;69.72;37.13;;;;;;;;;;5112047;27;20970;-80
2023/01/25 08:25:45;;;;;;;68.25;37.60;;;;;;;;;;5125007;27;20418;-80
2023/01/25 08:28:11;;;;;;;74.47;38.13;;;;;;;;;;5112530;27;20420;-80
2023/01/25 08:30:37;;;;;;;75.00;38.80;;;;;;;;;;5089291;27;20414;-79
2023/01/25 08:33:03;;;;;;;69.95;36.15;;;;;;;;;;5105389;27;20420;-80
2023/01/25 08:35:29;;;;;;;66.03;35.80;;;;;;;;;;5109362;27;20426;-80
2023/01/25 08:37:56;;;;;;;63.80;33.90;;;;;;;;;;5083768;27;20414;-80
2023/01/25 08:40:22;;;;;;;66.90;34.38;;;;;;;;;;5118398;27;20576;-80
2023/01/25 08:42:48;;;;;;;98.60;38.80;;;;;;;;;;5103785;27;20505;-80
2023/01/25 08:45:14;;;;;;;67.75;33.90;;;;;;;;;;5096294;28;20519;-80
2023/01/25 08:47:40;;;;;;;64.50;34.28;;;;;;;;;;5079079;27;20414;-80
2023/01/25 08:50:06;;;;;;;63.28;33.55;;;;;;;;;;5105136;28;20463;-80
2023/01/25 08:52:33;;;;;;;63.03;32.38;;;;;;;;;;5095475;28;20440;-80
2023/01/25 08:54:59;;;;;;;68.18;34.67;;;;;;;;;;5123086;28;20469;-82
2023/01/25 08:57:25;;;;;;;65.50;34.03;;;;;;;;;;5113396;27;20523;-81
2023/01/25 08:59:51;;;;;;;65.63;34.30;;;;;;;;;;5124441;27;20420;-81
2023/01/25 09:02:20;;;;;;;63.72;33.13;;;;;;;;;;5103326;28;20433;-82
2023/01/25 09:04:46;;;;;;;65.10;33.40;;;;;;;;;;5118397;27;20420;-82
2023/01/25 09:07:12;;;;;;;66.32;34.67;;;;;;;;;;5116534;27;20418;-81
2023/01/25 09:09:38;;;;;;;66.80;34.40;;;;;;;;;;5123116;27;20774;-81
2023/01/25 09:12:04;;;;;;;67.83;34.87;;;;;;;;;;5101367;28;20541;-82
2023/01/25 09:14:30;;;;;;;67.00;34.50;;;;;;;;;;5092438;28;20813;-82
2023/01/25 09:16:56;;;;;;;66.57;34.47;;;;;;;;;;5114398;28;20392;-81
2023/01/25 09:19:22;;;;;;;69.80;35.83;;;;;;;;;;5095770;27;20473;-82
2023/01/25 09:21:48;;;;;;;69.73;35.37;;;;;;;;;;5104855;27;20487;-82
2023/01/25 09:24:14;;;;;;;67.05;35.45;;;;;;;;;;5112695;28;20408;-82
2023/01/25 09:26:41;;;;;;;65.47;34.47;;;;;;;;;;5116877;27;20418;-82
2023/01/25 09:29:09;;;;;;;67.57;34.73;;;;;;;;;;5119738;27;20418;-82
2023/01/25 09:31:38;;;;;;;131.40;38.33;;;;;;;;;;5117943;27;20440;-82
2023/01/25 09:34:05;;;;;;;69.57;35.37;;;;;;;;;;5106403;27;20509;-82
2023/01/25 09:36:31;;;;;;;66.65;33.55;;;;;;;;;;5113118;27;20419;-82
2023/01/25 09:38:57;;;;;;;63.45;32.95;;;;;;;;;;5100790;27;20497;-82
2023/01/25 09:41:23;;;;;;;63.50;33.47;;;;;;;;;;5104552;28;20922;-82
2023/01/25 09:43:52;;;;;;;66.80;34.00;;;;;;;;;;5107535;28;20435;-81
2023/01/25 09:46:37;;;;;;;68.45;34.30;;;;;;;;;;5114641;27;20472;-80
2023/01/25 09:49:09;;;;;;;68.70;34.75;;;;;;;;;;5128306;27;20420;-81
2023/01/25 09:52:11;;;;;;;65.97;34.40;;;;;;;;;;5121736;27;20428;-81
2023/01/25 09:54:40;;;;;;;71.93;35.88;;;;;;;;;;5024876;28;20504;-80
2023/01/25 09:57:22;;;;;;;68.28;34.50;;;;;;;;;;5095691;27;20460;-82
2023/01/25 09:59:50;;;;;;;66.07;33.88;;;;;;;;;;5114194;27;20940;-82
2023/01/25 10:02:51;;;;;;;67.07;33.20;;;;;;;;;;5110878;27;20498;-83
2023/01/25 10:05:22;;;;;;;65.20;33.83;;;;;;;;;;5031602;28;20950;-81
2023/01/25 10:07:54;;;;;;;69.57;33.30;;;;;;;;;;5095142;27;20418;-81
2023/01/25 10:10:23;;;;;;;69.60;33.78;;;;;;;;;;5112651;27;20573;-82
2023/01/25 10:12:49;;;;;;;68.93;33.50;;;;;;;;;;5113761;27;20503;-81
2023/01/25 10:15:19;;;;;;;71.10;34.42;;;;;;;;;;5106388;27;20423;-81
2023/01/25 10:17:49;;;;;;;70.30;34.60;;;;;;;;;;5126949;27;20931;-82
2023/01/25 10:20:20;;;;;;;75.97;35.65;;;;;;;;;;5129292;27;20422;-82
2023/01/25 10:23:09;;;;;;;157.68;42.40;;;;;;;;;;5128473;27;20422;-82
2023/01/25 10:25:43;;;;;;;72.63;35.63;;;;;;;;;;5078817;27;20423;-80
2023/01/25 10:28:20;;;;;;;71.18;35.25;;;;;;;;;;5111788;27;20423;-80
2023/01/25 10:30:54;;;;;;;71.13;34.15;;;;;;;;;;5120149;27;20773;-81
2023/01/25 10:33:21;;;;;;;71.53;35.50;;;;;;;;;;5097011;27;20422;-81
2023/01/25 10:35:48;;;;;;;71.03;34.70;;;;;;;;;;5115507;27;20408;-81
2023/01/25 10:38:26;;;;;;;76.65;34.08;;;;;;;;;;5113030;27;20420;-81
2023/01/25 10:40:55;;;;;;;72.28;33.63;;;;;;;;;;5115791;27;20421;-81
2023/01/25 10:43:22;;;;;;;68.70;33.88;;;;;;;;;;5108330;28;20444;-82
2023/01/25 10:45:49;;;;;;;110.15;38.13;;;;;;;;;;5123335;27;20415;-82
2023/01/25 10:48:21;;;;;;;74.57;34.85;;;;;;;;;;5102987;28;20794;-82
2023/01/25 10:50:48;;;;;;;70.32;34.45;;;;;;;;;;5114937;27;20423;-82
2023/01/25 10:53:30;;;;;;;71.93;33.83;;;;;;;;;;5116225;27;20420;-81
2023/01/25 10:56:19;;;;;;;77.20;34.20;;;;;;;;;;5112074;27;20474;-80
2023/01/25 10:58:47;;;;;;;74.45;35.00;;;;;;;;;;5112922;28;20403;-80
2023/01/25 11:01:30;;;;;;;69.90;32.08;;;;;;;;;;5114449;27;20408;-80
2023/01/25 11:03:57;;;;;;;70.32;32.78;;;;;;;;;;5102132;28;20747;-81
2023/01/25 11:06:34;;;;;;;72.00;33.00;;;;;;;;;;5105626;27;20417;-80
2023/01/25 11:09:00;;;;;;;100.47;35.72;;;;;;;;;;5098605;27;20504;-81
2023/01/25 11:11:35;;;;;;;76.32;33.90;;;;;;;;;;5110866;27;20414;-81
2023/01/25 11:14:02;;;;;;;73.28;34.47;;;;;;;;;;5124950;27;20409;-80
2023/01/25 11:16:31;;;;;;;77.32;35.63;;;;;;;;;;5095324;27;20412;-80
2023/01/25 11:18:58;;;;;;;81.03;36.23;;;;;;;;;;5122263;27;20563;-80
2023/01/25 11:21:29;;;;;;;85.40;36.22;;;;;;;;;;5128873;27;20811;-80
2023/01/25 11:24:16;;;;;;;89.93;37.67;;;;;;;;;;5120659;27;20531;-80
2023/01/25 11:26:42;;;;;;;73.57;34.17;;;;;;;;;;5113657;27;20747;-81
2023/01/25 11:29:16;;;;;;;76.25;34.42;;;;;;;;;;5123654;27;20457;-80
2023/01/25 11:31:44;;;;;;;78.00;34.40;;;;;;;;;;5118690;27;20923;-80
2023/01/25 11:34:12;;;;;;;69.10;30.58;;;;;;;;;;5099420;28;20416;-80
2023/01/25 11:36:38;;;;;;;68.50;32.75;;;;;;;;;;5113530;27;20416;-80
2023/01/25 11:39:12;;;;;;;88.57;32.03;;;;;;;;;;5120702;27;20505;-80
2023/01/25 11:41:42;;;;;;;69.65;31.42;;;;;;;;;;5115252;27;20462;-81
2023/01/25 11:44:25;;;;;;;73.68;31.85;;;;;;;;;;5109504;27;20423;-82
2023/01/25 11:46:54;;;;;;;72.68;31.50;;;;;;;;;;5115552;27;20428;-81
2023/01/25 11:49:38;;;;;;;74.03;33.03;;;;;;;;;;5104026;27;20415;-82
2023/01/25 11:52:04;;;;;;;77.90;32.50;;;;;;;;;;5109013;27;20454;-81
2023/01/25 11:54:38;;;;;;;72.13;32.38;;;;;;;;;;5124491;27;20410;-81
2023/01/25 11:57:28;;;;;;;76.10;31.67;;;;;;;;;;5103894;27;20874;-82
2023/01/25 12:00:13;;;;;;;80.13;32.75;;;;;;;;;;5072962;28;20779;-81
2023/01/25 12:02:45;;;;;;;85.00;33.67;;;;;;;;;;5098661;28;20472;-80
2023/01/25 12:05:15;;;;;;;90.07;34.67;;;;;;;;;;5099481;27;20427;-81
2023/01/25 12:07:47;;;;;;;158.50;39.97;;;;;;;;;;5094304;28;20904;-81
2023/01/25 12:10:32;;;;;;;94.93;36.05;;;;;;;;;;5094512;28;20449;-81
2023/01/25 12:13:04;;;;;;;89.20;34.90;;;;;;;;;;5116628;27;20452;-79
2023/01/25 12:15:33;;;;;;;93.55;34.90;;;;;;;;;;5110440;27;20777;-81
2023/01/25 12:18:05;;;;;;;90.10;34.10;;;;;;;;;;5119430;27;20421;-81
2023/01/25 12:20:36;;;;;;;99.45;36.15;;;;;;;;;;5123720;27;20432;-81
2023/01/25 12:23:02;;;;;;;93.63;35.88;;;;;;;;;;5098616;28;20427;-80
2023/01/25 12:26:00;;;;;;;87.85;33.40;;;1.20;99.90;;;;;;5100599;27;20433;-80
2023/01/25 12:28:26;;;;;;;83.97;32.80;;;;;;;;;;5119160;27;20420;-80
2023/01/25 12:30:58;;;;;;;79.72;31.83;;;;;;;;;;5118225;27;20416;-80
2023/01/25 12:33:32;;;;;;;83.27;32.93;;;;;;;;;;5116218;27;20416;-80
2023/01/25 12:36:04;;;;;;;81.55;30.67;;;;;;;;;;5103886;27;20464;-80
2023/01/25 12:38:49;;;;;;;76.25;30.77;;;;;;;;;;5112887;28;20497;-80
2023/01/25 12:41:21;;;;;;;71.93;29.88;;;;;;;;;;5094332;27;20410;-81
2023/01/25 12:43:50;;;;;;;71.45;29.58;;;;;;;;;;5099979;28;20416;-81
2023/01/25 12:46:39;;;;;;;70.72;28.92;;;;;;;;;;5098309;28;20430;-81
2023/01/25 12:49:08;;;;;;;72.70;29.27;;;;;;;;;;5111269;27;20491;-81
2023/01/25 12:51:36;;;;;;;77.13;30.23;;;;;;;;;;5097922;28;20553;-81
2023/01/25 12:54:07;;;;;;;68.68;28.77;;;;;;;;;;5118785;28;20406;-80
2023/01/25 12:56:46;;;;;;;71.40;27.55;;;;;;;;;;5116160;28;20416;-81
2023/01/25 12:59:18;;;;;;;74.38;28.77;;;;;;;;;;5104837;28;20415;-81
2023/01/25 13:01:57;;;;;;;71.80;29.10;;;;;;;;;;5109479;28;20420;-81
2023/01/25 13:04:42;;;;;;;75.93;30.30;;;;;;;;;;5102382;27;20418;-82
2023/01/25 13:07:24;;;;;;;74.47;29.98;;;;;;;;;;5114362;28;20420;-81
2023/01/25 13:09:50;;;;;;;78.60;30.92;;;;;;;;;;5103314;28;20422;-81
2023/01/25 13:12:16;;;;;;;75.57;31.20;;;;;;;;;;5095077;28;20427;-82
2023/01/25 13:14:42;;;;;;;73.32;29.92;;;;;;;;;;5107196;28;20491;-81
2023/01/25 13:17:36;;;;;;;83.18;31.40;;;;;;;;;;5095259;28;20484;-81
2023/01/25 13:20:22;;;;;;;213.70;38.17;;;;;;;;;;5099750;28;20544;-81
2023/01/25 13:22:50;;;;;;;80.93;30.95;;;;;;;;;;5114313;28;20419;-80
2023/01/25 13:25:16;;;;;;;78.13;30.73;;;;;;;;;;5125122;27;20504;-82
2023/01/25 13:27:42;;;;;;;75.07;30.48;;;;;;;;;;5130535;28;20427;-81
2023/01/25 13:30:21;;;;;;;68.18;29.17;;;;;;;;;;5124364;27;20419;-81
2023/01/25 13:32:50;;;;;;;72.80;30.57;;;;;;;;;;5130007;28;20483;-81
2023/01/25 13:35:27;;;;;;;71.45;28.88;;;;;;;;;;5108569;28;20435;-80
2023/01/25 13:38:04;;;;;;;70.53;29.20;;;;;;;;;;5100897;28;20435;-80
2023/01/25 13:40:35;;;;;;;71.30;28.93;;;;;;;;;;5116456;27;20491;-79
2023/01/25 13:43:18;;;;;;;76.18;29.98;;;;;;;;;;5119286;28;20425;-80
2023/01/25 13:45:46;;;;;;;75.20;31.98;;;;;;;;;;5120273;27;20475;-80
2023/01/25 13:48:15;;;;;;;85.47;34.30;;;;;;;;;;5123019;27;20410;-80
2023/01/25 13:50:49;;;;;;;77.10;31.45;;;;;;;;;;5113582;27;20727;-80
2023/01/25 13:53:15;;;;;;;81.07;32.92;;;;;;;;;;5112483;28;20463;-80
2023/01/25 13:55:42;;;;;;;79.77;33.70;;;;;;;;;;5092507;28;20415;-80
2023/01/25 13:58:18;;;;;;;83.95;34.72;;;;;;;;;;5119808;27;20923;-80
2023/01/25 14:01:07;;;;;;;86.73;35.60;;;;;;;;;;5105198;27;20461;-80
2023/01/25 14:03:34;;;;;;;83.88;34.80;;;;;;;;;;5111109;27;20482;-80
2023/01/25 14:06:01;;;;;;;82.05;35.25;;;;;;;;;;5127722;27;20421;-80
2023/01/25 14:08:28;;;;;;;88.00;37.30;;;;;;;;;;5105838;28;20419;-80
2023/01/25 14:10:55;;;;;;;88.73;37.40;;;;;;;;;;5120191;27;20423;-81
2023/01/25 14:13:21;;;;;;;87.00;36.55;;;;;;;;;;5118769;27;20419;-81
2023/01/25 14:15:55;;;;;;;91.57;37.90;;;;;;;;;;5124677;27;20435;-81
2023/01/25 14:18:22;;;;;;;92.37;36.93;;;;;;;;;;5115417;27;20399;-81
2023/01/25 14:20:50;;;;;;;87.88;36.50;;;;;;;;;;5118378;27;20412;-81
2023/01/25 14:23:24;;;;;;;83.55;35.72;;;;;;;;;;5114416;27;20939;-80
2023/01/25 14:25:51;;;;;;;84.70;35.17;;;;;;;;;;5112325;27;20742;-81
2023/01/25 14:28:18;;;;;;;94.90;37.80;;;;;;;;;;5113058;28;20420;-80
2023/01/25 14:30:44;;;;;;;90.80;37.10;;;;;;;;;;5123253;27;20429;-80
2023/01/25 14:33:18;;;;;;;88.18;36.78;;;;;;;;;;5099539;28;20760;-80
2023/01/25 14:35:45;;;;;;;94.10;37.95;;;;;;;;;;5117345;27;20497;-81
2023/01/25 14:38:28;;;;;;;90.53;36.58;;;;;;;;;;5108016;27;20968;-80